sensor_id;sensor_type;location;lat;lon;timestamp;P1;durP1;ratioP1;P2;durP2;ratioP2
60060;SDS011;45933;51.336;12.612;2023-07-20T00:01:28;6.38;;;4.05;;
60060;SDS011;45933;51.336;12.612;2023-07-20T00:03:53;6.65;;;3.50;;
60060;SDS011;45933;51.336;12.612;2023-07-20T00:06:22;5.53;;;3.10;;
60060;SDS011;45933;51.336;12.612;2023-07-20T00:08:49;6.07;;;3.10;;
60060;SDS011;45933;51.336;12.612;2023-07-20T00:11:14;2.75;;;2.30;;
60060;SDS011;45933;51.336;12.612;2023-07-20T00:13:40;7.35;;;3.38;;
60060;SDS011;45933;51.336;12.612;2023-07-20T00:16:06;2.50;;;2.22;;
60060;SDS011;45933;51.336;12.612;2023-07-20T00:18:31;5.13;;;2.97;;
60060;SDS011;45933;51.336;12.612;2023-07-20T00:20:56;4.28;;;2.53;;
60060;SDS011;45933;51.336;12.612;2023-07-20T00:23:22;4.05;;;2.58;;
60060;SDS011;45933;51.336;12.612;2023-07-20T00:25:48;4.00;;;2.63;;
60060;SDS011;45933;51.336;12.612;2023-07-20T00:28:13;4.15;;;2.55;;
60060;SDS011;45933;51.336;12.612;2023-07-20T00:30:39;3.95;;;3.00;;
60060;SDS011;45933;51.336;12.612;2023-07-20T00:33:06;5.20;;;3.85;;
60060;SDS011;45933;51.336;12.612;2023-07-20T00:35:35;4.35;;;3.58;;
60060;SDS011;45933;51.336;12.612;2023-07-20T00:38:00;6.25;;;3.75;;
60060;SDS011;45933;51.336;12.612;2023-07-20T00:40:25;7.97;;;5.82;;
60060;SDS011;45933;51.336;12.612;2023-07-20T00:42:51;9.43;;;5.65;;
60060;SDS011;45933;51.336;12.612;2023-07-20T00:45:16;8.98;;;6.22;;
60060;SDS011;45933;51.336;12.612;2023-07-20T00:47:42;8.75;;;6.03;;
60060;SDS011;45933;51.336;12.612;2023-07-20T00:50:07;9.48;;;6.20;;
60060;SDS011;45933;51.336;12.612;2023-07-20T00:52:35;6.38;;;5.28;;
60060;SDS011;45933;51.336;12.612;2023-07-20T00:55:04;6.15;;;5.55;;
60060;SDS011;45933;51.336;12.612;2023-07-20T00:57:30;6.88;;;5.30;;
60060;SDS011;45933;51.336;12.612;2023-07-20T00:59:55;6.72;;;4.63;;
60060;SDS011;45933;51.336;12.612;2023-07-20T01:02:21;5.55;;;4.50;;
60060;SDS011;45933;51.336;12.612;2023-07-20T01:04:46;5.90;;;4.13;;
60060;SDS011;45933;51.336;12.612;2023-07-20T01:07:14;5.20;;;3.88;;
60060;SDS011;45933;51.336;12.612;2023-07-20T01:09:55;7.00;;;4.10;;
60060;SDS011;45933;51.336;12.612;2023-07-20T01:14:52;3.95;;;3.45;;
60060;SDS011;45933;51.336;12.612;2023-07-20T01:17:19;5.93;;;4.03;;
60060;SDS011;45933;51.336;12.612;2023-07-20T01:19:44;4.85;;;3.85;;
60060;SDS011;45933;51.336;12.612;2023-07-20T01:22:33;4.90;;;3.78;;
60060;SDS011;45933;51.336;12.612;2023-07-20T01:33:15;7.93;;;4.03;;
60060;SDS011;45933;51.336;12.612;2023-07-20T01:35:43;6.50;;;4.57;;
60060;SDS011;45933;51.336;12.612;2023-07-20T01:38:10;5.95;;;4.22;;
60060;SDS011;45933;51.336;12.612;2023-07-20T01:40:37;5.57;;;3.70;;
60060;SDS011;45933;51.336;12.612;2023-07-20T01:43:03;4.15;;;3.65;;
60060;SDS011;45933;51.336;12.612;2023-07-20T01:45:28;6.97;;;3.20;;
60060;SDS011;45933;51.336;12.612;2023-07-20T01:47:54;5.28;;;3.35;;
60060;SDS011;45933;51.336;12.612;2023-07-20T01:50:19;7.20;;;3.90;;
60060;SDS011;45933;51.336;12.612;2023-07-20T01:52:45;5.13;;;3.70;;
60060;SDS011;45933;51.336;12.612;2023-07-20T01:55:10;6.05;;;3.85;;
60060;SDS011;45933;51.336;12.612;2023-07-20T01:57:35;7.53;;;3.85;;
60060;SDS011;45933;51.336;12.612;2023-07-20T02:00:01;5.50;;;3.70;;
60060;SDS011;45933;51.336;12.612;2023-07-20T02:02:27;5.40;;;3.85;;
60060;SDS011;45933;51.336;12.612;2023-07-20T02:04:53;5.13;;;3.33;;
60060;SDS011;45933;51.336;12.612;2023-07-20T02:07:18;5.05;;;3.80;;
60060;SDS011;45933;51.336;12.612;2023-07-20T02:09:43;6.82;;;3.65;;
60060;SDS011;45933;51.336;12.612;2023-07-20T02:12:09;8.25;;;3.55;;
60060;SDS011;45933;51.336;12.612;2023-07-20T02:14:34;5.57;;;3.80;;
60060;SDS011;45933;51.336;12.612;2023-07-20T02:16:59;5.07;;;3.50;;
60060;SDS011;45933;51.336;12.612;2023-07-20T02:19:26;5.13;;;3.92;;
60060;SDS011;45933;51.336;12.612;2023-07-20T02:21:51;4.32;;;3.58;;
60060;SDS011;45933;51.336;12.612;2023-07-20T02:24:17;7.47;;;3.70;;
60060;SDS011;45933;51.336;12.612;2023-07-20T02:26:42;5.47;;;3.58;;
60060;SDS011;45933;51.336;12.612;2023-07-20T02:29:08;4.30;;;2.92;;
60060;SDS011;45933;51.336;12.612;2023-07-20T02:31:36;6.68;;;3.40;;
60060;SDS011;45933;51.336;12.612;2023-07-20T02:34:02;4.55;;;3.33;;
60060;SDS011;45933;51.336;12.612;2023-07-20T02:36:28;4.20;;;3.33;;
60060;SDS011;45933;51.336;12.612;2023-07-20T02:38:53;7.28;;;3.85;;
60060;SDS011;45933;51.336;12.612;2023-07-20T02:41:18;5.25;;;3.20;;
60060;SDS011;45933;51.336;12.612;2023-07-20T02:43:44;4.18;;;3.15;;
60060;SDS011;45933;51.336;12.612;2023-07-20T02:46:09;4.00;;;2.95;;
60060;SDS011;45933;51.336;12.612;2023-07-20T02:48:34;4.32;;;3.08;;
60060;SDS011;45933;51.336;12.612;2023-07-20T02:51:00;5.57;;;3.30;;
60060;SDS011;45933;51.336;12.612;2023-07-20T02:53:25;8.05;;;3.72;;
60060;SDS011;45933;51.336;12.612;2023-07-20T02:55:51;5.00;;;3.15;;
60060;SDS011;45933;51.336;12.612;2023-07-20T02:58:16;3.95;;;3.55;;
60060;SDS011;45933;51.336;12.612;2023-07-20T03:00:42;6.03;;;3.60;;
60060;SDS011;45933;51.336;12.612;2023-07-20T03:03:08;4.22;;;3.25;;
60060;SDS011;45933;51.336;12.612;2023-07-20T03:05:34;5.18;;;3.30;;
60060;SDS011;45933;51.336;12.612;2023-07-20T03:08:00;4.57;;;3.63;;
60060;SDS011;45933;51.336;12.612;2023-07-20T03:10:27;4.68;;;3.45;;
60060;SDS011;45933;51.336;12.612;2023-07-20T03:12:53;8.25;;;3.80;;
60060;SDS011;45933;51.336;12.612;2023-07-20T03:15:18;4.63;;;3.03;;
60060;SDS011;45933;51.336;12.612;2023-07-20T03:17:43;6.72;;;3.63;;
60060;SDS011;45933;51.336;12.612;2023-07-20T03:20:09;5.60;;;3.10;;
60060;SDS011;45933;51.336;12.612;2023-07-20T03:22:35;6.70;;;3.38;;
60060;SDS011;45933;51.336;12.612;2023-07-20T03:25:00;5.53;;;3.78;;
60060;SDS011;45933;51.336;12.612;2023-07-20T03:27:26;8.13;;;3.67;;
60060;SDS011;45933;51.336;12.612;2023-07-20T03:29:51;5.80;;;3.22;;
60060;SDS011;45933;51.336;12.612;2023-07-20T03:32:16;10.18;;;3.55;;
60060;SDS011;45933;51.336;12.612;2023-07-20T03:34:41;10.52;;;3.88;;
60060;SDS011;45933;51.336;12.612;2023-07-20T03:37:07;9.82;;;3.75;;
60060;SDS011;45933;51.336;12.612;2023-07-20T03:39:32;8.63;;;3.97;;
60060;SDS011;45933;51.336;12.612;2023-07-20T03:41:57;9.25;;;4.20;;
60060;SDS011;45933;51.336;12.612;2023-07-20T03:44:24;12.27;;;3.83;;
60060;SDS011;45933;51.336;12.612;2023-07-20T03:46:49;6.13;;;3.53;;
60060;SDS011;45933;51.336;12.612;2023-07-20T03:49:14;6.85;;;3.53;;
60060;SDS011;45933;51.336;12.612;2023-07-20T03:51:40;6.68;;;4.00;;
60060;SDS011;45933;51.336;12.612;2023-07-20T03:54:05;8.15;;;4.03;;
60060;SDS011;45933;51.336;12.612;2023-07-20T03:56:30;6.15;;;3.67;;
60060;SDS011;45933;51.336;12.612;2023-07-20T03:59:00;7.50;;;3.97;;
60060;SDS011;45933;51.336;12.612;2023-07-20T04:01:25;10.27;;;3.15;;
60060;SDS011;45933;51.336;12.612;2023-07-20T04:03:50;5.72;;;3.50;;
60060;SDS011;45933;51.336;12.612;2023-07-20T04:06:16;6.43;;;3.80;;
60060;SDS011;45933;51.336;12.612;2023-07-20T04:08:42;10.50;;;4.32;;
60060;SDS011;45933;51.336;12.612;2023-07-20T04:11:07;12.25;;;3.95;;
60060;SDS011;45933;51.336;12.612;2023-07-20T04:13:33;9.13;;;3.90;;
60060;SDS011;45933;51.336;12.612;2023-07-20T04:15:59;9.40;;;4.25;;
60060;SDS011;45933;51.336;12.612;2023-07-20T04:18:25;12.27;;;3.65;;
60060;SDS011;45933;51.336;12.612;2023-07-20T04:20:50;10.68;;;4.60;;
60060;SDS011;45933;51.336;12.612;2023-07-20T04:23:15;14.07;;;4.25;;
60060;SDS011;45933;51.336;12.612;2023-07-20T04:25:41;6.50;;;4.03;;
60060;SDS011;45933;51.336;12.612;2023-07-20T04:28:07;9.18;;;3.92;;
60060;SDS011;45933;51.336;12.612;2023-07-20T04:30:35;7.90;;;3.78;;
60060;SDS011;45933;51.336;12.612;2023-07-20T04:33:02;8.75;;;4.03;;
60060;SDS011;45933;51.336;12.612;2023-07-20T04:35:47;6.97;;;4.10;;
60060;SDS011;45933;51.336;12.612;2023-07-20T04:38:17;8.10;;;3.65;;
60060;SDS011;45933;51.336;12.612;2023-07-20T04:40:47;8.65;;;3.80;;
60060;SDS011;45933;51.336;12.612;2023-07-20T04:43:14;6.13;;;3.60;;
60060;SDS011;45933;51.336;12.612;2023-07-20T04:45:40;9.05;;;3.47;;
60060;SDS011;45933;51.336;12.612;2023-07-20T04:48:10;6.25;;;3.05;;
60060;SDS011;45933;51.336;12.612;2023-07-20T04:50:36;7.05;;;3.40;;
60060;SDS011;45933;51.336;12.612;2023-07-20T04:53:02;6.00;;;3.45;;
60060;SDS011;45933;51.336;12.612;2023-07-20T04:55:28;9.85;;;3.22;;
60060;SDS011;45933;51.336;12.612;2023-07-20T04:57:53;9.80;;;3.63;;
60060;SDS011;45933;51.336;12.612;2023-07-20T05:00:18;10.15;;;3.10;;
60060;SDS011;45933;51.336;12.612;2023-07-20T05:02:44;5.10;;;2.92;;
60060;SDS011;45933;51.336;12.612;2023-07-20T05:05:10;7.53;;;3.25;;
60060;SDS011;45933;51.336;12.612;2023-07-20T05:07:35;9.90;;;3.42;;
60060;SDS011;45933;51.336;12.612;2023-07-20T05:10:00;6.53;;;3.22;;
60060;SDS011;45933;51.336;12.612;2023-07-20T05:12:26;6.50;;;3.58;;
60060;SDS011;45933;51.336;12.612;2023-07-20T05:14:51;7.68;;;3.00;;
60060;SDS011;45933;51.336;12.612;2023-07-20T05:17:16;6.43;;;2.83;;
60060;SDS011;45933;51.336;12.612;2023-07-20T05:19:42;8.05;;;2.78;;
60060;SDS011;45933;51.336;12.612;2023-07-20T05:22:07;10.75;;;3.33;;
60060;SDS011;45933;51.336;12.612;2023-07-20T05:24:32;5.05;;;2.47;;
60060;SDS011;45933;51.336;12.612;2023-07-20T05:26:58;6.28;;;3.08;;
60060;SDS011;45933;51.336;12.612;2023-07-20T05:29:23;9.32;;;3.35;;
60060;SDS011;45933;51.336;12.612;2023-07-20T05:31:50;5.65;;;2.88;;
60060;SDS011;45933;51.336;12.612;2023-07-20T05:34:15;4.43;;;2.45;;
60060;SDS011;45933;51.336;12.612;2023-07-20T05:36:41;3.80;;;2.58;;
60060;SDS011;45933;51.336;12.612;2023-07-20T05:39:06;5.30;;;2.97;;
60060;SDS011;45933;51.336;12.612;2023-07-20T05:41:31;6.45;;;2.90;;
60060;SDS011;45933;51.336;12.612;2023-07-20T05:43:57;7.05;;;3.05;;
60060;SDS011;45933;51.336;12.612;2023-07-20T05:46:22;6.15;;;3.00;;
60060;SDS011;45933;51.336;12.612;2023-07-20T05:48:49;7.47;;;3.28;;
60060;SDS011;45933;51.336;12.612;2023-07-20T05:51:14;8.73;;;2.95;;
60060;SDS011;45933;51.336;12.612;2023-07-20T05:53:40;6.88;;;3.50;;
60060;SDS011;45933;51.336;12.612;2023-07-20T05:56:06;6.95;;;3.35;;
60060;SDS011;45933;51.336;12.612;2023-07-20T05:58:35;6.72;;;3.25;;
60060;SDS011;45933;51.336;12.612;2023-07-20T06:01:00;5.60;;;2.92;;
60060;SDS011;45933;51.336;12.612;2023-07-20T06:03:27;5.03;;;2.83;;
60060;SDS011;45933;51.336;12.612;2023-07-20T06:05:57;4.43;;;3.25;;
60060;SDS011;45933;51.336;12.612;2023-07-20T06:08:24;3.53;;;3.00;;
60060;SDS011;45933;51.336;12.612;2023-07-20T06:10:50;7.35;;;3.40;;
60060;SDS011;45933;51.336;12.612;2023-07-20T06:13:16;6.20;;;2.70;;
60060;SDS011;45933;51.336;12.612;2023-07-20T06:15:41;3.47;;;2.83;;
60060;SDS011;45933;51.336;12.612;2023-07-20T06:18:07;6.97;;;3.13;;
60060;SDS011;45933;51.336;12.612;2023-07-20T06:20:32;6.65;;;2.60;;
60060;SDS011;45933;51.336;12.612;2023-07-20T06:22:57;3.53;;;2.63;;
60060;SDS011;45933;51.336;12.612;2023-07-20T06:25:23;4.75;;;2.95;;
60060;SDS011;45933;51.336;12.612;2023-07-20T06:27:49;5.18;;;2.70;;
60060;SDS011;45933;51.336;12.612;2023-07-20T06:30:18;4.53;;;2.90;;
60060;SDS011;45933;51.336;12.612;2023-07-20T06:32:44;4.55;;;2.90;;
60060;SDS011;45933;51.336;12.612;2023-07-20T06:35:09;6.88;;;3.22;;
60060;SDS011;45933;51.336;12.612;2023-07-20T06:37:35;4.53;;;2.90;;
60060;SDS011;45933;51.336;12.612;2023-07-20T06:40:01;6.60;;;3.00;;
60060;SDS011;45933;51.336;12.612;2023-07-20T06:42:28;3.58;;;2.13;;
60060;SDS011;45933;51.336;12.612;2023-07-20T06:44:53;5.63;;;3.00;;
60060;SDS011;45933;51.336;12.612;2023-07-20T06:47:19;3.30;;;2.42;;
60060;SDS011;45933;51.336;12.612;2023-07-20T06:49:44;2.58;;;2.00;;
60060;SDS011;45933;51.336;12.612;2023-07-20T06:52:09;3.33;;;2.22;;
60060;SDS011;45933;51.336;12.612;2023-07-20T06:54:34;5.65;;;2.80;;
60060;SDS011;45933;51.336;12.612;2023-07-20T06:57:00;3.22;;;2.35;;
60060;SDS011;45933;51.336;12.612;2023-07-20T06:59:25;5.93;;;2.92;;
60060;SDS011;45933;51.336;12.612;2023-07-20T07:01:50;6.15;;;2.92;;
60060;SDS011;45933;51.336;12.612;2023-07-20T07:04:16;3.20;;;2.47;;
60060;SDS011;45933;51.336;12.612;2023-07-20T07:06:41;3.97;;;2.50;;
60060;SDS011;45933;51.336;12.612;2023-07-20T07:09:06;6.40;;;2.83;;
60060;SDS011;45933;51.336;12.612;2023-07-20T07:11:33;2.97;;;2.65;;
60060;SDS011;45933;51.336;12.612;2023-07-20T07:13:58;4.72;;;2.97;;
60060;SDS011;45933;51.336;12.612;2023-07-20T07:16:23;5.15;;;2.53;;
60060;SDS011;45933;51.336;12.612;2023-07-20T07:18:49;5.68;;;2.70;;
60060;SDS011;45933;51.336;12.612;2023-07-20T07:21:15;3.60;;;2.67;;
60060;SDS011;45933;51.336;12.612;2023-07-20T07:23:40;4.22;;;2.78;;
60060;SDS011;45933;51.336;12.612;2023-07-20T07:26:06;4.05;;;2.40;;
60060;SDS011;45933;51.336;12.612;2023-07-20T07:28:31;3.95;;;2.17;;
60060;SDS011;45933;51.336;12.612;2023-07-20T07:30:59;4.75;;;2.45;;
60060;SDS011;45933;51.336;12.612;2023-07-20T07:33:24;2.03;;;1.88;;
60060;SDS011;45933;51.336;12.612;2023-07-20T07:35:50;3.05;;;1.80;;
60060;SDS011;45933;51.336;12.612;2023-07-20T07:38:17;5.68;;;2.40;;
60060;SDS011;45933;51.336;12.612;2023-07-20T07:40:43;3.30;;;2.05;;
60060;SDS011;45933;51.336;12.612;2023-07-20T07:43:08;4.55;;;1.70;;
60060;SDS011;45933;51.336;12.612;2023-07-20T07:45:34;4.28;;;2.22;;
60060;SDS011;45933;51.336;12.612;2023-07-20T07:48:03;2.00;;;1.60;;
60060;SDS011;45933;51.336;12.612;2023-07-20T07:50:29;3.17;;;2.10;;
60060;SDS011;45933;51.336;12.612;2023-07-20T07:52:55;2.28;;;2.00;;
60060;SDS011;45933;51.336;12.612;2023-07-20T07:55:20;5.30;;;2.25;;
60060;SDS011;45933;51.336;12.612;2023-07-20T07:57:46;1.60;;;1.50;;
60060;SDS011;45933;51.336;12.612;2023-07-20T08:00:12;3.05;;;1.70;;
60060;SDS011;45933;51.336;12.612;2023-07-20T08:02:40;4.15;;;1.60;;
60060;SDS011;45933;51.336;12.612;2023-07-20T08:05:06;2.63;;;1.50;;
60060;SDS011;45933;51.336;12.612;2023-07-20T08:07:32;4.25;;;2.05;;
60060;SDS011;45933;51.336;12.612;2023-07-20T08:09:57;4.40;;;1.70;;
60060;SDS011;45933;51.336;12.612;2023-07-20T08:12:22;3.15;;;1.60;;
60060;SDS011;45933;51.336;12.612;2023-07-20T08:14:48;4.82;;;1.98;;
60060;SDS011;45933;51.336;12.612;2023-07-20T08:17:13;2.75;;;2.20;;
60060;SDS011;45933;51.336;12.612;2023-07-20T08:19:39;6.60;;;1.85;;
60060;SDS011;45933;51.336;12.612;2023-07-20T08:22:06;3.80;;;2.20;;
60060;SDS011;45933;51.336;12.612;2023-07-20T08:24:32;2.90;;;1.58;;
60060;SDS011;45933;51.336;12.612;2023-07-20T08:26:58;3.67;;;2.22;;
60060;SDS011;45933;51.336;12.612;2023-07-20T08:29:23;3.45;;;2.05;;
60060;SDS011;45933;51.336;12.612;2023-07-20T08:31:49;3.08;;;1.95;;
60060;SDS011;45933;51.336;12.612;2023-07-20T08:34:14;4.57;;;2.10;;
60060;SDS011;45933;51.336;12.612;2023-07-20T08:36:40;3.53;;;2.47;;
60060;SDS011;45933;51.336;12.612;2023-07-20T08:39:05;3.63;;;1.63;;
60060;SDS011;45933;51.336;12.612;2023-07-20T08:41:30;3.10;;;2.47;;
60060;SDS011;45933;51.336;12.612;2023-07-20T08:43:56;2.58;;;2.15;;
60060;SDS011;45933;51.336;12.612;2023-07-20T08:46:23;3.55;;;2.00;;
60060;SDS011;45933;51.336;12.612;2023-07-20T08:48:51;4.13;;;1.95;;
60060;SDS011;45933;51.336;12.612;2023-07-20T08:51:17;1.92;;;1.77;;
60060;SDS011;45933;51.336;12.612;2023-07-20T08:53:45;2.03;;;1.73;;
60060;SDS011;45933;51.336;12.612;2023-07-20T08:56:11;4.05;;;2.17;;
60060;SDS011;45933;51.336;12.612;2023-07-20T08:58:38;3.13;;;2.28;;
60060;SDS011;45933;51.336;12.612;2023-07-20T09:01:05;2.85;;;1.83;;
60060;SDS011;45933;51.336;12.612;2023-07-20T09:03:31;2.75;;;2.30;;
60060;SDS011;45933;51.336;12.612;2023-07-20T09:05:57;3.83;;;2.30;;
60060;SDS011;45933;51.336;12.612;2023-07-20T09:08:23;3.03;;;2.13;;
60060;SDS011;45933;51.336;12.612;2023-07-20T09:10:48;4.18;;;2.10;;
60060;SDS011;45933;51.336;12.612;2023-07-20T09:13:14;3.17;;;2.58;;
60060;SDS011;45933;51.336;12.612;2023-07-20T09:15:45;3.53;;;2.28;;
60060;SDS011;45933;51.336;12.612;2023-07-20T09:18:11;4.35;;;2.50;;
60060;SDS011;45933;51.336;12.612;2023-07-20T09:20:37;5.97;;;2.72;;
60060;SDS011;45933;51.336;12.612;2023-07-20T09:23:06;3.17;;;2.42;;
60060;SDS011;45933;51.336;12.612;2023-07-20T09:25:31;4.05;;;2.70;;
60060;SDS011;45933;51.336;12.612;2023-07-20T09:27:58;3.92;;;2.65;;
60060;SDS011;45933;51.336;12.612;2023-07-20T09:30:27;2.55;;;2.22;;
60060;SDS011;45933;51.336;12.612;2023-07-20T09:32:52;2.53;;;2.33;;
60060;SDS011;45933;51.336;12.612;2023-07-20T09:35:19;2.35;;;2.10;;
60060;SDS011;45933;51.336;12.612;2023-07-20T09:37:49;7.82;;;2.40;;
60060;SDS011;45933;51.336;12.612;2023-07-20T09:40:25;2.42;;;2.20;;
60060;SDS011;45933;51.336;12.612;2023-07-20T09:42:54;2.25;;;1.95;;
60060;SDS011;45933;51.336;12.612;2023-07-20T09:45:29;2.42;;;2.10;;
60060;SDS011;45933;51.336;12.612;2023-07-20T09:48:02;2.50;;;2.17;;
60060;SDS011;45933;51.336;12.612;2023-07-20T09:50:29;2.58;;;1.85;;
60060;SDS011;45933;51.336;12.612;2023-07-20T09:52:54;1.60;;;1.48;;
60060;SDS011;45933;51.336;12.612;2023-07-20T09:55:20;3.67;;;1.85;;
60060;SDS011;45933;51.336;12.612;2023-07-20T09:57:49;2.40;;;2.08;;
60060;SDS011;45933;51.336;12.612;2023-07-20T10:00:14;3.67;;;2.30;;
60060;SDS011;45933;51.336;12.612;2023-07-20T10:02:42;2.60;;;1.80;;
60060;SDS011;45933;51.336;12.612;2023-07-20T10:05:09;3.17;;;2.05;;
60060;SDS011;45933;51.336;12.612;2023-07-20T10:07:40;3.55;;;2.13;;
60060;SDS011;45933;51.336;12.612;2023-07-20T10:10:10;5.10;;;2.70;;
60060;SDS011;45933;51.336;12.612;2023-07-20T10:12:36;2.40;;;2.08;;
60060;SDS011;45933;51.336;12.612;2023-07-20T10:17:29;8.43;;;3.00;;
60060;SDS011;45933;51.336;12.612;2023-07-20T10:19:56;10.10;;;3.80;;
60060;SDS011;45933;51.336;12.612;2023-07-20T10:22:26;6.00;;;3.20;;
60060;SDS011;45933;51.336;12.612;2023-07-20T10:24:52;5.80;;;3.25;;
60060;SDS011;45933;51.336;12.612;2023-07-20T10:27:19;6.35;;;3.10;;
60060;SDS011;45933;51.336;12.612;2023-07-20T10:29:45;6.88;;;3.20;;
60060;SDS011;45933;51.336;12.612;2023-07-20T10:32:12;5.03;;;3.47;;
60060;SDS011;45933;51.336;12.612;2023-07-20T10:34:38;4.00;;;3.70;;
60060;SDS011;45933;51.336;12.612;2023-07-20T10:37:04;3.13;;;2.78;;
60060;SDS011;45933;51.336;12.612;2023-07-20T10:39:32;4.53;;;3.75;;
60060;SDS011;45933;51.336;12.612;2023-07-20T10:42:02;3.55;;;2.97;;
60060;SDS011;45933;51.336;12.612;2023-07-20T10:44:37;2.78;;;2.58;;
60060;SDS011;45933;51.336;12.612;2023-07-20T10:47:03;3.25;;;2.88;;
60060;SDS011;45933;51.336;12.612;2023-07-20T10:49:34;3.53;;;2.83;;
60060;SDS011;45933;51.336;12.612;2023-07-20T10:52:03;4.28;;;3.08;;
60060;SDS011;45933;51.336;12.612;2023-07-20T10:57:21;2.60;;;2.40;;
60060;SDS011;45933;51.336;12.612;2023-07-20T10:59:48;3.85;;;2.90;;
60060;SDS011;45933;51.336;12.612;2023-07-20T11:02:17;4.72;;;2.72;;
60060;SDS011;45933;51.336;12.612;2023-07-20T11:04:44;2.70;;;2.45;;
60060;SDS011;45933;51.336;12.612;2023-07-20T11:07:14;3.00;;;2.80;;
60060;SDS011;45933;51.336;12.612;2023-07-20T11:09:41;2.10;;;1.90;;
60060;SDS011;45933;51.336;12.612;2023-07-20T11:12:15;2.28;;;1.75;;
60060;SDS011;45933;51.336;12.612;2023-07-20T11:17:28;3.45;;;2.13;;
60060;SDS011;45933;51.336;12.612;2023-07-20T11:19:58;2.80;;;2.50;;
60060;SDS011;45933;51.336;12.612;2023-07-20T11:22:25;2.88;;;2.53;;
60060;SDS011;45933;51.336;12.612;2023-07-20T11:24:54;2.55;;;1.70;;
60060;SDS011;45933;51.336;12.612;2023-07-20T11:27:20;1.92;;;1.73;;
60060;SDS011;45933;51.336;12.612;2023-07-20T11:29:47;1.40;;;1.30;;
60060;SDS011;45933;51.336;12.612;2023-07-20T11:32:12;1.17;;;1.08;;
60060;SDS011;45933;51.336;12.612;2023-07-20T11:34:46;1.00;;;0.90;;
60060;SDS011;45933;51.336;12.612;2023-07-20T11:37:12;1.02;;;0.93;;
60060;SDS011;45933;51.336;12.612;2023-07-20T11:39:38;1.33;;;1.05;;
60060;SDS011;45933;51.336;12.612;2023-07-20T11:42:03;1.33;;;1.23;;
60060;SDS011;45933;51.336;12.612;2023-07-20T11:44:30;2.58;;;1.33;;
60060;SDS011;45933;51.336;12.612;2023-07-20T11:47:05;0.80;;;0.80;;
60060;SDS011;45933;51.336;12.612;2023-07-20T11:49:36;1.80;;;1.40;;
60060;SDS011;45933;51.336;12.612;2023-07-20T11:52:07;1.40;;;1.20;;
60060;SDS011;45933;51.336;12.612;2023-07-20T11:54:37;2.40;;;1.50;;
60060;SDS011;45933;51.336;12.612;2023-07-20T11:57:04;1.55;;;1.40;;
60060;SDS011;45933;51.336;12.612;2023-07-20T11:59:33;1.73;;;1.40;;
60060;SDS011;45933;51.336;12.612;2023-07-20T12:02:02;1.95;;;1.27;;
60060;SDS011;45933;51.336;12.612;2023-07-20T12:04:31;1.58;;;1.40;;
60060;SDS011;45933;51.336;12.612;2023-07-20T12:06:57;1.77;;;1.67;;
60060;SDS011;45933;51.336;12.612;2023-07-20T12:09:22;2.17;;;1.20;;
60060;SDS011;45933;51.336;12.612;2023-07-20T12:11:48;1.30;;;1.20;;
60060;SDS011;45933;51.336;12.612;2023-07-20T12:14:15;0.88;;;0.88;;
60060;SDS011;45933;51.336;12.612;2023-07-20T12:16:40;1.13;;;1.02;;
60060;SDS011;45933;51.336;12.612;2023-07-20T12:19:09;1.20;;;1.00;;
60060;SDS011;45933;51.336;12.612;2023-07-20T12:21:39;0.90;;;0.90;;
60060;SDS011;45933;51.336;12.612;2023-07-20T12:24:07;1.67;;;1.10;;
60060;SDS011;45933;51.336;12.612;2023-07-20T12:26:36;1.40;;;1.10;;
60060;SDS011;45933;51.336;12.612;2023-07-20T12:29:02;2.65;;;1.30;;
60060;SDS011;45933;51.336;12.612;2023-07-20T12:31:28;1.60;;;1.35;;
60060;SDS011;45933;51.336;12.612;2023-07-20T12:33:55;1.60;;;1.23;;
60060;SDS011;45933;51.336;12.612;2023-07-20T12:36:21;1.15;;;1.05;;
60060;SDS011;45933;51.336;12.612;2023-07-20T12:38:47;2.33;;;1.42;;
60060;SDS011;45933;51.336;12.612;2023-07-20T12:41:12;2.67;;;1.50;;
60060;SDS011;45933;51.336;12.612;2023-07-20T12:43:39;1.90;;;1.80;;
60060;SDS011;45933;51.336;12.612;2023-07-20T12:46:08;2.80;;;1.40;;
60060;SDS011;45933;51.336;12.612;2023-07-20T12:48:35;3.03;;;1.40;;
60060;SDS011;45933;51.336;12.612;2023-07-20T12:51:02;1.20;;;1.00;;
60060;SDS011;45933;51.336;12.612;2023-07-20T12:53:28;1.10;;;1.00;;
60060;SDS011;45933;51.336;12.612;2023-07-20T12:55:53;1.70;;;0.90;;
60060;SDS011;45933;51.336;12.612;2023-07-20T12:58:19;1.00;;;0.90;;
60060;SDS011;45933;51.336;12.612;2023-07-20T13:00:44;1.88;;;0.90;;
60060;SDS011;45933;51.336;12.612;2023-07-20T13:03:09;2.65;;;1.00;;
60060;SDS011;45933;51.336;12.612;2023-07-20T13:05:35;2.55;;;0.88;;
60060;SDS011;45933;51.336;12.612;2023-07-20T13:08:01;1.08;;;0.70;;
60060;SDS011;45933;51.336;12.612;2023-07-20T13:10:27;0.95;;;0.70;;
60060;SDS011;45933;51.336;12.612;2023-07-20T13:12:53;3.67;;;0.90;;
60060;SDS011;45933;51.336;12.612;2023-07-20T13:15:19;0.50;;;0.50;;
60060;SDS011;45933;51.336;12.612;2023-07-20T13:17:44;2.05;;;0.70;;
60060;SDS011;45933;51.336;12.612;2023-07-20T13:20:10;0.77;;;0.60;;
60060;SDS011;45933;51.336;12.612;2023-07-20T13:22:37;0.93;;;0.60;;
60060;SDS011;45933;51.336;12.612;2023-07-20T13:25:03;1.05;;;0.70;;
60060;SDS011;45933;51.336;12.612;2023-07-20T13:27:29;1.02;;;0.80;;
60060;SDS011;45933;51.336;12.612;2023-07-20T13:29:55;1.42;;;0.63;;
60060;SDS011;45933;51.336;12.612;2023-07-20T13:32:21;1.10;;;0.80;;
60060;SDS011;45933;51.336;12.612;2023-07-20T13:34:47;0.60;;;0.60;;
60060;SDS011;45933;51.336;12.612;2023-07-20T13:37:13;0.57;;;0.50;;
60060;SDS011;45933;51.336;12.612;2023-07-20T13:39:38;0.90;;;0.63;;
60060;SDS011;45933;51.336;12.612;2023-07-20T13:42:04;1.63;;;0.60;;
60060;SDS011;45933;51.336;12.612;2023-07-20T13:44:32;0.70;;;0.40;;
60060;SDS011;45933;51.336;12.612;2023-07-20T13:46:59;1.92;;;0.63;;
60060;SDS011;45933;51.336;12.612;2023-07-20T13:49:25;1.67;;;0.60;;
60060;SDS011;45933;51.336;12.612;2023-07-20T13:51:51;0.70;;;0.50;;
60060;SDS011;45933;51.336;12.612;2023-07-20T13:54:16;1.40;;;0.68;;
60060;SDS011;45933;51.336;12.612;2023-07-20T13:56:41;0.93;;;0.80;;
60060;SDS011;45933;51.336;12.612;2023-07-20T13:59:07;0.63;;;0.50;;
60060;SDS011;45933;51.336;12.612;2023-07-20T14:01:32;3.70;;;0.73;;
60060;SDS011;45933;51.336;12.612;2023-07-20T14:03:59;0.98;;;0.80;;
60060;SDS011;45933;51.336;12.612;2023-07-20T14:06:25;0.90;;;0.90;;
60060;SDS011;45933;51.336;12.612;2023-07-20T14:08:50;1.27;;;1.05;;
60060;SDS011;45933;51.336;12.612;2023-07-20T14:11:17;1.08;;;1.00;;
60060;SDS011;45933;51.336;12.612;2023-07-20T14:13:43;1.20;;;1.10;;
60060;SDS011;45933;51.336;12.612;2023-07-20T14:16:08;2.65;;;1.00;;
60060;SDS011;45933;51.336;12.612;2023-07-20T14:18:34;1.02;;;0.95;;
60060;SDS011;45933;51.336;12.612;2023-07-20T14:20:59;1.23;;;1.17;;
60060;SDS011;45933;51.336;12.612;2023-07-20T14:23:27;0.90;;;0.90;;
60060;SDS011;45933;51.336;12.612;2023-07-20T14:25:53;1.35;;;1.25;;
60060;SDS011;45933;51.336;12.612;2023-07-20T14:28:19;1.10;;;1.10;;
60060;SDS011;45933;51.336;12.612;2023-07-20T14:30:45;1.20;;;1.10;;
60060;SDS011;45933;51.336;12.612;2023-07-20T14:33:10;1.20;;;1.10;;
60060;SDS011;45933;51.336;12.612;2023-07-20T14:35:36;1.23;;;1.13;;
60060;SDS011;45933;51.336;12.612;2023-07-20T14:38:01;2.38;;;1.20;;
60060;SDS011;45933;51.336;12.612;2023-07-20T14:40:26;1.30;;;1.20;;
60060;SDS011;45933;51.336;12.612;2023-07-20T14:42:52;1.23;;;1.17;;
60060;SDS011;45933;51.336;12.612;2023-07-20T14:45:17;1.20;;;1.10;;
60060;SDS011;45933;51.336;12.612;2023-07-20T14:47:43;1.35;;;1.23;;